Time;durP1;ratioP1;P1;durP2;ratioP2;P2;SDS_P1;SDS_P2;PMS_P1;PMS_P2;Temp;Humidity;BMP_temperature;BMP_pressure;BME280_temperature;BME280_humidity;BME280_pressure;Samples;Min_cycle;Max_cycle;Signal;HPM_P1;HPM_P2
2023/10/13 00:01:59;;;;;;;11.55;6.13;;;17.80;90.60;;;;;;4858266;29;20310;-77
2023/10/13 00:04:32;;;;;;;12.63;6.30;;;17.80;90.80;;;;;;4850263;29;20054;-77
2023/10/13 00:06:59;;;;;;;11.20;5.53;;;17.70;90.90;;;;;;4839906;29;20057;-77
2023/10/13 00:09:37;;;;;;;11.48;6.38;;;17.70;91.20;;;;;;4839417;29;20051;-78
2023/10/13 00:12:14;;;;;;;13.80;6.47;;;17.50;91.10;;;;;;4871176;29;20048;-78
2023/10/13 00:14:41;;;;;;;12.65;6.38;;;17.40;91.40;;;;;;4870919;29;20323;-78
2023/10/13 00:17:08;;;;;;;13.45;6.93;;;17.30;91.20;;;;;;4854663;29;20068;-78
2023/10/13 00:19:44;;;;;;;13.65;6.75;;;17.30;91.60;;;;;;4854684;29;20354;-78
2023/10/13 00:22:10;;;;;;;12.00;5.57;;;17.20;91.90;;;;;;4870435;29;20037;-77
2023/10/13 00:24:45;;;;;;;10.40;5.97;;;17.10;92.20;;;;;;4854415;29;20033;-79
2023/10/13 00:27:36;;;;;;;12.73;6.40;;;17.00;92.70;;;;;;4834954;29;20042;-78
2023/10/13 00:30:33;;;;;;;11.75;5.57;;;16.90;92.70;;;;;;4835301;29;20034;-78
2023/10/13 04:47:21;;;;;;;15.40;6.28;;;13.90;96.80;;;;;;5771579;23;20097;-76
2023/10/13 04:52:26;;;;;;;13.15;5.53;;;13.80;97.30;;;;;;4900591;29;20037;-75
2023/10/13 04:54:59;;;;;;;15.80;6.05;;;13.80;97.20;;;;;;4908103;29;20055;-76
2023/10/13 05:03:40;;;;;;;13.95;6.57;;;13.70;97.70;;;;;;4907414;29;20037;-76
2023/10/13 05:06:13;;;;;;;15.07;7.13;;;13.70;97.80;;;;;;4892599;29;20040;-79
2023/10/13 06:31:07;;;;;;;14.00;4.63;;;15.80;93.10;;;;;;4875890;29;20041;-80
2023/10/13 06:33:42;;;;;;;17.23;5.72;;;16.00;92.70;;;;;;4870328;29;20049;-79
2023/10/13 06:36:10;;;;;;;12.15;5.25;;;16.00;92.70;;;;;;4840315;29;20399;-80
2023/10/13 06:38:42;;;;;;;;;;;16.10;92.40;;;;;;4855576;29;20121;-80
2023/10/13 06:41:08;;;;;;;10.02;4.13;;;16.20;91.70;;;;;;4855480;29;20128;-80
2023/10/13 06:43:42;;;;;;;9.77;4.32;;;16.30;92.10;;;;;;4854170;29;20056;-79
2023/10/13 06:46:14;;;;;;;9.23;4.47;;;16.40;91.70;;;;;;4840054;29;20069;-78
2023/10/13 06:48:41;;;;;;;9.10;4.20;;;16.40;91.40;;;;;;4870040;29;20045;-80
2023/10/13 06:51:30;;;;;;;10.23;4.35;;;16.50;91.40;;;;;;4839913;29;20314;-78
2023/10/13 06:53:56;;;;;;;7.50;4.40;;;16.60;91.40;;;;;;4857058;29;20070;-80
2023/10/13 06:56:26;;;;;;;9.20;4.03;;;16.60;91.50;;;;;;4861006;29;20077;-80
2023/10/13 06:59:04;;;;;;;10.68;4.18;;;16.60;91.10;;;;;;4868393;29;20033;-81
2023/10/13 07:01:48;;;;;;;11.25;4.20;;;16.60;90.90;;;;;;4869966;29;20247;-80
2023/10/13 07:04:16;;;;;;;8.88;4.53;;;16.70;90.80;;;;;;4862404;29;20108;-80
2023/10/13 07:06:54;;;;;;;7.45;3.63;;;16.80;90.90;;;;;;4883277;29;20037;-79
2023/10/13 07:12:03;;;;;;;11.10;4.10;;;17.00;90.60;;;;;;4877707;29;20074;-78
2023/10/13 07:14:33;;;;;;;14.15;4.90;;;17.00;90.50;;;;;;4873222;29;20092;-79
2023/10/13 07:17:04;;;;;;;8.15;4.35;;;17.20;90.40;;;;;;4877946;29;20100;-78
2023/10/13 07:19:52;;;;;;;7.93;4.10;;;17.20;90.30;;;;;;4875659;29;20029;-80
2023/10/13 07:22:54;;;;;;;9.80;4.10;;;17.20;90.10;;;;;;4889327;29;20037;-79
2023/10/13 07:25:25;;;;;;;7.72;4.10;;;17.30;90.10;;;;;;4876454;29;20041;-81
2023/10/13 07:27:56;;;;;;;9.95;4.43;;;17.40;90.10;;;;;;4870096;29;20415;-77
2023/10/13 07:30:41;;;;;;;;;;;;;;;;;;;;;
2023/10/13 07:33:22;;;;;;;11.32;4.50;;;17.40;90.00;;;;;;4888599;29;20028;-80
2023/10/13 07:35:58;;;;;;;8.50;4.28;;;17.50;89.50;;;;;;4868124;29;20036;-78
2023/10/13 07:38:30;;;;;;;9.52;4.57;;;17.40;89.40;;;;;;4879283;29;20021;-80
2023/10/13 07:41:15;;;;;;;11.52;4.30;;;17.50;89.20;;;;;;4879729;29;20033;-80
2023/10/13 07:43:48;;;;;;;10.65;4.50;;;17.50;88.90;;;;;;4876375;29;20333;-80
2023/10/13 07:46:35;;;;;;;9.48;4.22;;;17.60;88.80;;;;;;4864999;29;20037;-80
2023/10/13 07:49:11;;;;;;;11.55;4.25;;;17.70;88.60;;;;;;4860274;29;20092;-80
2023/10/13 07:51:48;;;;;;;10.07;4.00;;;17.80;88.00;;;;;;4854398;29;20026;-79
2023/10/13 07:54:23;;;;;;;13.57;4.47;;;17.90;87.40;;;;;;4861212;29;20269;-81
2023/10/13 07:56:54;;;;;;;9.55;4.03;;;17.90;86.80;;;;;;4841573;29;20038;-79
2023/10/13 07:59:47;;;;;;;11.77;4.32;;;18.00;86.60;;;;;;4840061;29;20034;-80
2023/10/13 08:02:15;;;;;;;9.43;4.15;;;18.10;86.30;;;;;;4853271;29;20036;-78
2023/10/13 08:04:44;;;;;;;11.20;4.15;;;18.20;86.30;;;;;;4842033;29;20045;-79
2023/10/13 08:07:15;;;;;;;12.05;5.00;;;18.30;86.10;;;;;;4857420;29;20092;-77
2023/10/13 08:09:59;;;;;;;11.65;4.20;;;18.40;85.80;;;;;;4839478;29;20033;-80
2023/10/13 08:12:50;;;;;;;13.20;4.05;;;18.50;85.40;;;;;;4844609;29;20066;-80
2023/10/13 08:15:31;;;;;;;11.38;4.13;;;18.70;84.90;;;;;;4866101;29;20077;-78
2023/10/13 08:18:17;;;;;;;10.40;4.20;;;18.90;84.00;;;;;;4855513;29;20034;-79
2023/10/13 08:20:44;;;;;;;12.60;4.10;;;18.90;84.20;;;;;;4848019;29;20081;-80
2023/10/13 08:23:34;;;;;;;9.32;3.90;;;19.00;83.80;;;;;;4837878;29;20021;-78
2023/10/13 08:43:50;;;;;;;12.02;4.70;;;19.60;82.50;;;;;;4849711;29;20064;-78
2023/10/13 08:46:28;;;;;;;14.43;4.55;;;19.80;81.60;;;;;;4835504;29;20112;-80
2023/10/13 08:58:20;;;;;;;17.25;5.28;;;20.50;79.30;;;;;;4852289;29;20152;-79
2023/10/13 09:03:42;;;;;;;12.45;4.88;;;20.90;78.20;;;;;;4852074;29;20311;-81
2023/10/13 09:09:27;;;;;;;11.43;4.93;;;21.20;76.40;;;;;;4880633;29;20041;-78
2023/10/13 09:12:17;;;;;;;15.93;5.20;;;21.40;75.60;;;;;;4888827;29;20112;-78
2023/10/13 09:20:46;;;;;;;14.38;5.40;;;22.00;74.20;;;;;;4902007;24;20040;-78
2023/10/13 09:23:24;;;;;;;18.77;4.63;;;22.20;73.80;;;;;;4855638;29;20050;-78
2023/10/13 09:28:36;;;;;;;15.80;4.38;;;22.50;72.90;;;;;;4847270;29;19916;-76
2023/10/13 09:31:09;;;;;;;7.93;2.83;;;22.60;71.80;;;;;;4852626;29;20025;-78
2023/10/13 09:33:55;;;;;;;8.88;2.83;;;22.70;67.60;;;;;;4864069;29;20067;-78
2023/10/13 09:36:42;;;;;;;9.25;2.83;;;23.00;67.70;;;;;;4836775;29;20029;-78
2023/10/13 09:39:13;;;;;;;9.65;2.63;;;23.30;64.10;;;;;;4878061;29;20029;-78
2023/10/13 09:42:12;;;;;;;6.57;2.03;;;23.90;61.00;;;;;;4860872;29;20303;-78
2023/10/13 09:44:40;;;;;;;7.90;2.80;;;24.20;59.70;;;;;;4841783;29;20028;-76
2023/10/13 09:50:05;;;;;;;10.27;3.00;;;24.60;58.90;;;;;;4849904;29;20041;-81
2023/10/13 09:52:41;;;;;;;5.35;1.88;;;24.80;58.50;;;;;;4848390;29;20082;-79
2023/10/13 09:55:54;;;;;;;5.35;2.25;;;24.90;57.70;;;;;;4854403;29;20316;-78
2023/10/13 09:58:51;;;;;;;5.68;2.30;;;25.10;57.90;;;;;;4813902;29;20029;-79
2023/10/13 10:01:40;;;;;;;9.82;2.42;;;25.30;57.80;;;;;;4838581;29;20032;-79
2023/10/13 10:04:20;;;;;;;6.85;2.20;;;25.40;56.60;;;;;;4853970;29;20336;-82
2023/10/13 10:07:01;;;;;;;6.13;1.98;;;25.40;56.80;;;;;;4849534;29;20037;-79
2023/10/13 10:09:34;;;;;;;7.80;2.20;;;25.50;57.20;;;;;;4833437;29;20108;-77
2023/10/13 10:12:18;;;;;;;7.93;2.10;;;25.70;56.90;;;;;;4851094;29;20037;-77
2023/10/13 10:15:28;;;;;;;8.35;2.35;;;25.80;56.60;;;;;;4850845;29;20037;-77
2023/10/13 10:18:03;;;;;;;7.95;2.13;;;26.00;57.30;;;;;;4836599;29;20078;-79
2023/10/13 10:20:41;;;;;;;6.68;2.38;;;26.10;55.60;;;;;;4854988;29;20065;-80
2023/10/13 10:24:29;;;;;;;5.20;2.10;;;26.30;55.50;;;;;;4823650;29;20273;-78
2023/10/13 10:26:29;;;;;;;6.95;2.28;;;26.50;55.70;;;;;;4867244;29;20236;-79
2023/10/13 10:28:55;;;;;;;7.65;2.40;;;26.60;55.20;;;;;;4872469;29;20268;-81
2023/10/13 10:31:44;;;;;;;9.35;2.63;;;26.70;54.80;;;;;;4856195;29;20045;-80
2023/10/13 10:34:18;;;;;;;8.63;2.67;;;26.60;53.80;;;;;;4840815;29;20045;-77
2023/10/13 10:36:53;;;;;;;6.00;2.40;;;26.70;54.70;;;;;;4872711;29;20243;-78
2023/10/13 10:39:19;;;;;;;6.47;2.15;;;26.90;54.30;;;;;;4871491;29;20390;-75
2023/10/13 10:41:51;;;;;;;5.50;1.92;;;27.20;53.60;;;;;;4855662;29;20041;-76
2023/10/13 10:44:39;;;;;;;7.50;2.15;;;27.70;53.60;;;;;;4840842;29;20374;-79
2023/10/13 10:47:36;;;;;;;8.15;2.30;;;28.00;52.70;;;;;;4871934;29;20034;-82
2023/10/13 10:52:51;;;;;;;4.72;1.90;;;28.00;52.60;;;;;;4871695;29;20049;-78
2023/10/13 10:55:32;;;;;;;6.28;2.08;;;28.00;52.40;;;;;;4855736;29;20041;-80
2023/10/13 10:58:26;;;;;;;11.18;2.33;;;28.40;52.20;;;;;;4839361;29;20040;-76
2023/10/13 11:01:20;;;;;;;5.50;2.20;;;29.30;51.20;;;;;;4855976;29;20040;-80
2023/10/13 11:03:57;;;;;;;7.53;2.50;;;30.00;50.80;;;;;;4854876;29;20030;-77
2023/10/13 11:06:25;;;;;;;6.63;2.40;;;30.70;49.20;;;;;;4840025;29;20101;-80
2023/10/13 11:09:18;;;;;;;5.30;2.00;;;30.80;49.40;;;;;;4854677;29;20053;-79
2023/10/13 11:11:45;;;;;;;6.47;2.20;;;30.20;49.40;;;;;;4871568;29;20045;-77
2023/10/13 11:14:22;;;;;;;6.40;2.22;;;29.70;49.90;;;;;;4855462;29;20053;-80
2023/10/13 11:17:13;;;;;;;;;;;30.10;49.30;;;;;;4870954;29;20062;-79
2023/10/13 11:20:17;;;;;;;5.07;1.98;;;30.80;49.30;;;;;;4870187;29;19957;-79
2023/10/13 11:23:06;;;;;;;;;;;;;;;;;;;;;
2023/10/13 11:25:37;;;;;;;5.75;2.00;;;32.20;47.90;;;;;;4855589;29;20041;-79
2023/10/13 11:28:35;;;;;;;5.35;2.15;;;32.90;46.30;;;;;;4870718;29;20046;-80
2023/10/13 11:31:19;;;;;;;9.48;2.30;;;33.00;46.50;;;;;;4839466;29;20041;-80
2023/10/13 11:33:52;;;;;;;6.50;2.25;;;32.10;46.70;;;;;;4853654;29;20049;-80
2023/10/13 11:36:36;;;;;;;7.05;2.22;;;32.20;47.50;;;;;;4839513;29;20051;-81
2023/10/13 11:39:07;;;;;;;8.07;2.20;;;31.10;47.00;;;;;;4870813;29;20326;-80
2023/10/13 11:41:45;;;;;;;8.15;2.47;;;30.90;47.40;;;;;;4855155;29;20045;-78
2023/10/13 11:49:31;;;;;;;7.97;2.13;;;30.40;48.20;;;;;;4850598;29;20078;-77
2023/10/13 11:52:15;;;;;;;8.02;2.35;;;30.30;48.40;;;;;;4852537;29;20320;-77
2023/10/13 11:54:41;;;;;;;8.13;2.80;;;29.80;48.70;;;;;;4860463;29;20037;-76
2023/10/13 11:57:19;;;;;;;8.82;2.47;;;30.70;48.70;;;;;;4871637;29;20081;-81
2023/10/13 11:59:52;;;;;;;6.20;2.25;;;31.60;47.50;;;;;;4854264;29;20064;-79
2023/10/13 12:04:59;;;;;;;7.75;2.40;;;33.30;46.30;;;;;;4870838;29;20064;-77
2023/10/13 12:07:51;;;;;;;7.03;2.20;;;34.80;45.00;;;;;;4857635;29;20082;-78
2023/10/13 12:13:45;;;;;;;7.72;2.40;;;35.20;44.20;;;;;;4873321;29;20096;-78
2023/10/13 12:16:13;;;;;;;4.65;2.40;;;35.10;43.30;;;;;;4841705;29;20033;-77
2023/10/13 12:18:38;;;;;;;5.65;2.38;;;35.60;43.20;;;;;;4872737;29;20100;-75
2023/10/13 12:21:13;;;;;;;7.45;2.42;;;36.20;43.10;;;;;;4872030;29;20295;-77
2023/10/13 12:23:50;;;;;;;5.38;1.95;;;35.70;43.30;;;;;;4856061;29;20053;-77
2023/10/13 12:26:32;;;;;;;5.25;1.77;;;35.60;42.60;;;;;;4841680;29;20036;-75
2023/10/13 12:29:28;;;;;;;7.43;2.42;;;35.70;42.40;;;;;;4853652;29;20037;-79
2023/10/13 12:32:23;;;;;;;6.35;2.30;;;36.10;42.00;;;;;;4857498;29;20073;-78
2023/10/13 12:37:49;;;;;;;5.05;2.15;;;36.00;42.30;;;;;;4870674;29;20034;-80
2023/10/13 12:48:58;;;;;;;6.72;2.53;;;37.00;41.40;;;;;;4853773;29;20033;-77
2023/10/13 12:51:40;;;;;;;6.53;2.50;;;37.60;41.50;;;;;;4869586;29;20105;-75
2023/10/13 12:54:20;;;;;;;5.68;2.03;;;38.40;40.90;;;;;;4868123;29;20117;-78
2023/10/13 13:02:38;;;;;;;8.40;2.53;;;37.70;40.80;;;;;;4812942;29;20046;-76
2023/10/13 13:05:11;;;;;;;5.70;2.00;;;37.30;41.10;;;;;;4812823;29;20046;-77
2023/10/13 13:07:52;;;;;;;3.75;1.95;;;38.20;40.80;;;;;;4812561;29;20181;-78
2023/10/13 13:10:20;;;;;;;7.18;2.00;;;39.30;40.40;;;;;;4816154;29;20037;-77
2023/10/13 13:12:46;;;;;;;5.07;1.92;;;39.80;39.40;;;;;;4816604;29;20366;-80
2023/10/13 13:15:12;;;;;;;6.28;2.17;;;39.60;39.60;;;;;;4819778;29;20058;-78
2023/10/13 13:17:38;;;;;;;6.00;2.10;;;39.80;38.90;;;;;;4813886;29;20058;-77
2023/10/13 13:20:11;;;;;;;8.43;2.30;;;39.50;39.30;;;;;;4797654;29;20393;-76
2023/10/13 13:22:40;;;;;;;5.80;2.28;;;39.80;39.40;;;;;;4798407;29;20061;-77
2023/10/13 13:25:08;;;;;;;9.55;2.40;;;40.50;39.00;;;;;;4813805;29;20042;-77
2023/10/13 13:27:36;;;;;;;4.68;2.10;;;41.60;38.80;;;;;;4783463;29;20050;-81
2023/10/13 13:30:12;;;;;;;;;;;40.20;38.40;;;;;;4814237;29;20034;-84
2023/10/13 13:32:54;;;;;;;5.55;2.13;;;39.60;38.30;;;;;;4817909;29;19909;-84
2023/10/13 13:35:19;;;;;;;4.65;2.10;;;39.60;38.50;;;;;;4858593;29;20236;-78
2023/10/13 13:37:49;;;;;;;7.78;2.40;;;39.60;38.00;;;;;;4881367;29;20062;-78
2023/10/13 13:41:09;;;;;;;6.28;2.20;;;39.60;37.80;;;;;;4865743;29;20048;-78
2023/10/13 13:43:37;;;;;;;6.38;2.78;;;39.50;38.50;;;;;;4825798;29;20106;-80
2023/10/13 13:46:16;;;;;;;5.60;1.98;;;39.30;38.10;;;;;;4876162;29;20033;-80
2023/10/13 13:48:43;;;;;;;4.85;2.10;;;38.90;37.70;;;;;;4873611;29;20045;-76
2023/10/13 13:51:15;;;;;;;8.40;2.53;;;38.90;38.40;;;;;;4853026;29;20206;-83
2023/10/13 13:53:50;;;;;;;6.65;2.20;;;38.70;37.70;;;;;;4840403;29;20205;-80
2023/10/13 13:56:18;;;;;;;5.68;1.95;;;38.10;37.90;;;;;;4857099;29;20034;-77
2023/10/13 13:58:47;;;;;;;;;;;38.40;37.90;;;;;;4872981;29;20041;-75
2023/10/13 14:01:18;;;;;;;6.25;2.00;;;38.50;38.30;;;;;;4869307;29;19910;-76
2023/10/13 14:03:56;;;;;;;6.00;2.25;;;39.50;37.90;;;;;;4848921;29;20025;-81
2023/10/13 14:06:34;;;;;;;5.03;2.00;;;39.80;38.30;;;;;;4856803;29;20030;-79
2023/10/13 14:12:29;;;;;;;4.72;1.80;;;39.40;37.20;;;;;;4873432;29;20077;-76
2023/10/13 14:14:56;;;;;;;5.47;2.08;;;38.70;38.00;;;;;;4872449;29;20134;-81
2023/10/13 14:17:28;;;;;;;4.80;2.00;;;39.30;38.70;;;;;;4872453;29;20058;-78
2023/10/13 14:19:58;;;;;;;7.93;2.42;;;39.50;37.50;;;;;;4856064;29;20029;-77
2023/10/13 14:22:25;;;;;;;4.38;2.10;;;38.90;37.70;;;;;;4857076;29;20053;-81
2023/10/13 14:24:54;;;;;;;4.95;2.00;;;39.40;37.80;;;;;;4872685;29;20030;-77
2023/10/13 14:27:23;;;;;;;7.00;2.70;;;38.90;37.80;;;;;;4872680;29;20311;-77
2023/10/13 14:29:52;;;;;;;3.95;1.90;;;38.50;37.50;;;;;;4856512;29;20034;-78
2023/10/13 14:32:24;;;;;;;4.72;1.67;;;38.80;37.40;;;;;;4856529;29;20041;-79
2023/10/13 14:35:21;;;;;;;7.20;2.10;;;38.40;37.60;;;;;;4871479;29;20103;-79
2023/10/13 14:37:47;;;;;;;6.60;2.25;;;38.10;37.70;;;;;;4873010;29;20466;-78
2023/10/13 14:40:14;;;;;;;5.03;1.80;;;37.30;38.30;;;;;;4872443;29;20059;-83
2023/10/13 14:42:42;;;;;;;6.30;1.90;;;37.00;38.10;;;;;;4873090;29;20044;-85
2023/10/13 14:45:17;;;;;;;;;;;37.10;38.00;;;;;;4856194;29;20041;-79
2023/10/13 14:47:46;;;;;;;4.90;2.03;;;36.60;38.20;;;;;;4873546;29;20132;-82
2023/10/13 14:53:21;;;;;;;7.28;2.30;;;36.10;38.30;;;;;;4851701;29;20120;-84
2023/10/13 14:55:48;;;;;;;7.40;2.47;;;34.70;39.00;;;;;;4842860;29;20076;-77
2023/10/13 14:58:16;;;;;;;4.38;1.92;;;34.00;39.40;;;;;;4840042;29;20050;-82
2023/10/13 15:00:45;;;;;;;5.70;1.90;;;33.90;39.60;;;;;;4856173;29;20017;-78
2023/10/13 15:03:11;;;;;;;8.43;2.00;;;33.90;40.00;;;;;;4839918;29;20227;-79
2023/10/13 15:06:04;;;;;;;5.53;2.55;;;33.30;39.80;;;;;;4871599;29;20057;-80
2023/10/13 15:08:33;;;;;;;4.03;2.05;;;32.80;40.00;;;;;;4872505;29;20029;-84
2023/10/13 15:11:45;;;;;;;5.40;1.70;;;32.80;40.00;;;;;;4854372;29;20029;-77
2023/10/13 15:14:13;;;;;;;4.18;1.90;;;32.80;39.90;;;;;;4867076;29;20057;-80
2023/10/13 15:16:39;;;;;;;;;;;33.30;39.40;;;;;;4867714;29;20376;-78
2023/10/13 15:19:06;;;;;;;4.90;1.83;;;33.30;39.70;;;;;;4852713;29;19904;-78
2023/10/13 15:21:35;;;;;;;4.47;1.80;;;33.90;39.50;;;;;;4867004;29;20054;-80
2023/10/13 15:24:14;;;;;;;4.53;2.00;;;34.00;38.50;;;;;;4836595;29;20102;-77
2023/10/13 15:26:44;;;;;;;6.45;1.60;;;34.10;38.80;;;;;;4837090;29;20257;-77
2023/10/13 15:29:12;;;;;;;4.22;1.90;;;34.50;38.60;;;;;;4860876;29;20037;-77
2023/10/13 15:31:41;;;;;;;3.00;1.48;;;35.10;39.40;;;;;;4839814;29;20064;-78
2023/10/13 15:34:17;;;;;;;5.53;1.70;;;35.30;38.10;;;;;;4855842;29;20338;-82
2023/10/13 15:36:45;;;;;;;3.47;1.73;;;35.20;38.00;;;;;;4840329;29;20089;-78
2023/10/13 15:39:11;;;;;;;6.47;1.85;;;35.40;38.20;;;;;;4854224;29;20108;-77
2023/10/13 15:41:38;;;;;;;4.68;1.65;;;35.10;37.70;;;;;;4855285;29;20048;-85
2023/10/13 15:44:09;;;;;;;3.78;1.90;;;35.00;37.90;;;;;;4871242;29;20061;-80
2023/10/13 15:46:36;;;;;;;6.97;2.25;;;34.80;38.10;;;;;;4839841;29;20037;-78
2023/10/13 15:49:08;;;;;;;5.43;1.73;;;34.20;38.70;;;;;;4870590;29;20046;-84
2023/10/13 15:51:36;;;;;;;4.35;1.55;;;33.00;39.00;;;;;;4871136;29;20358;-77
2023/10/13 15:54:03;;;;;;;4.75;1.55;;;32.40;39.60;;;;;;4870588;29;20079;-77
2023/10/13 15:56:52;;;;;;;3.67;1.70;;;32.80;39.40;;;;;;4871327;29;20326;-79
2023/10/13 15:59:18;;;;;;;5.45;1.98;;;32.90;39.50;;;;;;4853759;29;20343;-75
2023/10/13 16:01:46;;;;;;;3.63;1.50;;;33.30;39.20;;;;;;4864847;29;20082;-76
2023/10/13 16:04:18;;;;;;;5.78;1.80;;;32.70;39.20;;;;;;4835759;29;20359;-77
2023/10/13 16:06:50;;;;;;;3.63;1.70;;;32.40;39.60;;;;;;4852904;29;20349;-76
2023/10/13 16:09:22;;;;;;;7.47;1.85;;;31.90;39.70;;;;;;4836144;29;20033;-76
2023/10/13 16:11:49;;;;;;;4.72;1.65;;;31.20;40.20;;;;;;4836325;29;20046;-81
2023/10/13 16:14:17;;;;;;;5.07;1.52;;;30.50;40.80;;;;;;4835559;29;20038;-77
2023/10/13 16:16:47;;;;;;;8.45;2.03;;;29.80;41.30;;;;;;4850846;29;20024;-76
2023/10/13 16:19:14;;;;;;;4.80;1.50;;;29.40;41.80;;;;;;4835609;29;20082;-80
2023/10/13 16:21:40;;;;;;;4.05;1.48;;;29.00;42.10;;;;;;4820458;29;20235;-78
2023/10/13 16:24:10;;;;;;;7.05;1.95;;;28.90;42.70;;;;;;4835460;29;20043;-78
2023/10/13 16:26:40;;;;;;;4.22;1.95;;;28.60;42.60;;;;;;4836042;29;20061;-76
2023/10/13 16:29:07;;;;;;;7.22;2.30;;;28.30;43.00;;;;;;4834463;29;20038;-76
2023/10/13 16:31:33;;;;;;;6.18;2.40;;;28.10;43.00;;;;;;4832613;29;20022;-76
2023/10/13 16:33:59;;;;;;;6.32;2.35;;;28.00;43.40;;;;;;4816774;29;20335;-76
2023/10/13 16:36:25;;;;;;;4.43;1.98;;;27.80;43.90;;;;;;4833945;29;20030;-75
2023/10/13 16:38:51;;;;;;;6.57;2.00;;;27.60;44.10;;;;;;4817578;29;20097;-75
2023/10/13 16:41:18;;;;;;;5.40;2.28;;;27.40;43.90;;;;;;4832561;29;20479;-76
2023/10/13 16:43:45;;;;;;;4.57;1.90;;;27.30;44.10;;;;;;4833803;29;20045;-77
2023/10/13 16:46:12;;;;;;;7.07;1.90;;;27.10;44.50;;;;;;4832140;29;20320;-76
2023/10/13 16:48:39;;;;;;;3.33;2.00;;;26.90;45.00;;;;;;4802442;29;20030;-77
2023/10/13 16:51:05;;;;;;;4.35;1.77;;;26.80;45.30;;;;;;4816969;29;20035;-77
2023/10/13 16:53:34;;;;;;;6.18;2.00;;;26.50;45.40;;;;;;4832493;29;20320;-75
2023/10/13 16:56:03;;;;;;;4.07;1.77;;;26.40;45.90;;;;;;4850593;29;20276;-77
2023/10/13 16:58:30;;;;;;;5.45;1.90;;;26.20;46.60;;;;;;4850830;29;20075;-77
2023/10/13 17:00:56;;;;;;;7.57;2.25;;;26.10;47.00;;;;;;4851775;29;20022;-77
2023/10/13 17:03:31;;;;;;;6.10;2.13;;;25.90;47.00;;;;;;4850193;29;20030;-77
2023/10/13 17:06:01;;;;;;;6.95;2.08;;;25.80;46.90;;;;;;4851695;29;20041;-76
2023/10/13 17:08:29;;;;;;;3.72;1.50;;;25.70;46.70;;;;;;4851748;29;20064;-75
2023/10/13 17:11:16;;;;;;;4.43;1.90;;;25.60;47.80;;;;;;4835604;29;20105;-76
2023/10/13 17:13:45;;;;;;;5.07;2.13;;;25.50;47.90;;;;;;4835552;29;20030;-77
2023/10/13 17:16:20;;;;;;;4.68;2.13;;;25.30;48.60;;;;;;4849793;29;20101;-78
2023/10/13 17:18:47;;;;;;;4.40;1.95;;;25.10;48.60;;;;;;4835190;29;20033;-76
2023/10/13 17:21:22;;;;;;;6.88;2.63;;;24.90;49.80;;;;;;4849884;29;20056;-74
2023/10/13 17:23:52;;;;;;;6.20;2.25;;;24.70;48.70;;;;;;4850701;29;20109;-76
2023/10/13 17:26:19;;;;;;;5.78;2.58;;;24.70;49.10;;;;;;4849932;29;20090;-75
2023/10/13 17:28:45;;;;;;;4.30;2.22;;;24.60;49.70;;;;;;4837288;29;20025;-79
2023/10/13 17:31:13;;;;;;;7.18;2.63;;;;;;;;;;4838233;29;20070;-77
2023/10/13 17:33:39;;;;;;;6.32;3.28;;;24.50;49.80;;;;;;4838675;29;20025;-76
2023/10/13 17:36:10;;;;;;;6.35;2.90;;;24.40;50.10;;;;;;4854557;29;20328;-75
2023/10/13 17:38:36;;;;;;;6.32;2.85;;;24.40;50.40;;;;;;4854334;29;20098;-76
2023/10/13 17:41:09;;;;;;;5.60;2.42;;;;;;;;;;4854768;29;20029;-77
2023/10/13 17:43:35;;;;;;;4.00;1.90;;;24.30;50.50;;;;;;4854153;29;20026;-75
2023/10/13 17:46:11;;;;;;;6.72;2.13;;;24.30;50.70;;;;;;4823568;29;20049;-76
2023/10/13 17:48:38;;;;;;;6.03;2.40;;;24.30;50.70;;;;;;4852230;29;20053;-75
2023/10/13 17:51:08;;;;;;;5.43;2.60;;;24.30;51.20;;;;;;4838293;29;20045;-75
2023/10/13 17:53:37;;;;;;;5.88;2.38;;;24.30;51.90;;;;;;4854689;29;20223;-75
2023/10/13 17:56:12;;;;;;;5.80;2.47;;;24.20;52.20;;;;;;4854144;29;20204;-75
2023/10/13 17:58:42;;;;;;;6.93;2.15;;;24.20;52.50;;;;;;4853123;29;20049;-74
2023/10/13 18:01:17;;;;;;;5.10;2.45;;;24.10;52.70;;;;;;4853959;29;20104;-75
2023/10/13 18:03:53;;;;;;;6.80;2.53;;;24.00;52.60;;;;;;4854860;29;20366;-77
2023/10/13 18:06:21;;;;;;;6.75;2.35;;;24.00;52.80;;;;;;4838269;29;20034;-76
2023/10/13 18:08:51;;;;;;;7.37;2.37;;;23.90;52.40;;;;;;4856583;29;20080;-74
2023/10/13 18:11:18;;;;;;;6.25;3.00;;;23.90;52.90;;;;;;4867468;29;20474;-73
2023/10/13 18:13:46;;;;;;;8.63;2.28;;;23.80;53.10;;;;;;4867821;29;20018;-74
2023/10/13 18:16:16;;;;;;;5.53;2.40;;;23.60;53.60;;;;;;4867114;29;20045;-75
2023/10/13 18:18:42;;;;;;;5.43;2.15;;;23.60;54.00;;;;;;4855128;29;20101;-76
2023/10/13 18:21:09;;;;;;;7.72;2.88;;;23.50;54.20;;;;;;4859198;29;20064;-75
2023/10/13 18:23:40;;;;;;;6.05;2.40;;;23.50;54.80;;;;;;4873107;29;20319;-75
2023/10/13 18:26:11;;;;;;;7.00;2.63;;;23.40;55.40;;;;;;4872478;29;20057;-76
2023/10/13 18:28:38;;;;;;;6.53;2.47;;;23.30;55.80;;;;;;4872823;29;20105;-76
2023/10/13 18:31:10;;;;;;;7.80;2.40;;;23.30;56.20;;;;;;4872235;29;20070;-75
2023/10/13 18:33:37;;;;;;;6.10;2.58;;;23.20;56.10;;;;;;4872551;29;20199;-76
2023/10/13 18:36:24;;;;;;;7.78;2.80;;;23.20;56.40;;;;;;4872752;29;20066;-74
2023/10/13 18:38:51;;;;;;;6.07;2.53;;;23.10;56.80;;;;;;4872587;29;20209;-76
2023/10/13 18:41:19;;;;;;;8.02;4.15;;;23.00;56.40;;;;;;4871295;29;20037;-75
2023/10/13 18:43:45;;;;;;;10.68;5.20;;;22.90;56.60;;;;;;4853447;29;20034;-75
2023/10/13 18:46:12;;;;;;;10.57;5.50;;;22.70;57.20;;;;;;4853497;29;20093;-74
2023/10/13 18:48:43;;;;;;;10.50;4.80;;;22.50;57.70;;;;;;4853935;29;20042;-75
2023/10/13 18:51:17;;;;;;;8.15;3.88;;;22.20;57.90;;;;;;4837089;29;20057;-75
2023/10/13 18:53:46;;;;;;;8.52;3.78;;;22.20;58.30;;;;;;4853412;29;20316;-74
2023/10/13 18:56:19;;;;;;;7.25;3.88;;;22.20;59.10;;;;;;4853236;29;20090;-75
2023/10/13 18:58:53;;;;;;;7.65;3.20;;;22.10;59.10;;;;;;4854048;29;20033;-74
2023/10/13 19:01:24;;;;;;;5.50;2.67;;;22.10;59.60;;;;;;4852229;29;20053;-73
2023/10/13 19:03:53;;;;;;;9.73;3.50;;;22.10;59.40;;;;;;4853897;29;20294;-76
2023/10/13 19:06:20;;;;;;;7.40;3.13;;;22.10;59.60;;;;;;4853029;29;20034;-75
2023/10/13 19:08:46;;;;;;;7.40;3.28;;;22.20;59.30;;;;;;4837514;29;20029;-77
2023/10/13 19:11:12;;;;;;;8.13;3.25;;;22.30;58.90;;;;;;4852662;29;20038;-75
2023/10/13 19:13:42;;;;;;;5.95;2.80;;;22.40;59.10;;;;;;4853742;29;20041;-76
2023/10/13 19:16:12;;;;;;;8.13;2.85;;;22.40;58.10;;;;;;4853126;29;20038;-76
2023/10/13 19:18:39;;;;;;;6.88;2.88;;;22.60;58.40;;;;;;4852750;29;20049;-76
2023/10/13 19:21:06;;;;;;;6.30;2.67;;;22.80;58.30;;;;;;4837400;29;20332;-76
2023/10/13 19:23:32;;;;;;;7.20;2.47;;;22.80;58.50;;;;;;4853436;29;20041;-77
2023/10/13 19:25:58;;;;;;;7.07;2.38;;;22.90;57.60;;;;;;4837054;29;20117;-78
2023/10/13 19:28:24;;;;;;;6.72;2.40;;;23.00;57.10;;;;;;4853281;29;20058;-76
2023/10/13 19:30:51;;;;;;;5.60;1.90;;;23.00;56.30;;;;;;4852335;29;20018;-77
2023/10/13 19:33:22;;;;;;;5.63;2.17;;;23.20;55.50;;;;;;4838650;29;20086;-80
2023/10/13 19:35:51;;;;;;;6.63;2.40;;;23.30;55.10;;;;;;4836662;29;20069;-74
2023/10/13 19:38:17;;;;;;;7.43;2.50;;;23.50;55.00;;;;;;4851626;29;20014;-75
2023/10/13 19:40:43;;;;;;;6.53;2.40;;;23.30;55.40;;;;;;4852933;29;20042;-76
2023/10/13 19:43:12;;;;;;;5.10;2.17;;;23.30;55.30;;;;;;4836100;29;20049;-76
2023/10/13 19:45:38;;;;;;;;;;;23.20;54.90;;;;;;4853729;29;20032;-78
2023/10/13 19:48:09;;;;;;;3.92;2.05;;;23.20;54.50;;;;;;4836715;29;20013;-76
2023/10/13 19:50:38;;;;;;;7.43;2.47;;;23.10;54.60;;;;;;4853040;29;20041;-75
2023/10/13 19:53:10;;;;;;;9.13;2.58;;;23.10;55.10;;;;;;4836738;29;20041;-76
2023/10/13 19:55:42;;;;;;;6.43;2.03;;;23.00;55.30;;;;;;4852880;29;20061;-76
2023/10/13 19:58:15;;;;;;;5.88;2.00;;;22.90;54.70;;;;;;4851650;29;20044;-74
2023/10/13 20:00:41;;;;;;;5.32;2.08;;;23.00;54.90;;;;;;4836420;29;20061;-75
2023/10/13 20:03:11;;;;;;;8.05;2.35;;;23.00;54.60;;;;;;4851632;29;20078;-77
2023/10/13 20:05:37;;;;;;;5.50;1.95;;;23.00;54.80;;;;;;4836300;29;20219;-75
2023/10/13 20:08:04;;;;;;;5.53;2.13;;;23.00;54.60;;;;;;4852511;29;20033;-77
2023/10/13 20:10:36;;;;;;;5.68;1.77;;;22.90;53.60;;;;;;4820594;29;20037;-79
2023/10/13 20:13:10;;;;;;;4.93;2.63;;;22.90;53.80;;;;;;4852147;29;20082;-75
2023/10/13 20:15:36;;;;;;;7.40;2.03;;;23.00;53.50;;;;;;4836171;29;20121;-78
2023/10/13 20:18:07;;;;;;;5.68;2.40;;;23.00;53.10;;;;;;4851189;29;20045;-74
2023/10/13 20:20:43;;;;;;;5.97;1.67;;;23.10;52.80;;;;;;4852943;29;20037;-78
2023/10/13 20:23:12;;;;;;;4.32;1.88;;;23.10;52.50;;;;;;4852174;29;20046;-75
2023/10/13 20:25:42;;;;;;;7.20;2.13;;;23.10;52.60;;;;;;4853002;29;20042;-77
2023/10/13 20:28:08;;;;;;;4.35;1.70;;;23.10;52.50;;;;;;4835766;29;20026;-75
2023/10/13 20:30:35;;;;;;;7.10;2.08;;;23.00;52.60;;;;;;4851914;29;20220;-74
2023/10/13 20:33:12;;;;;;;3.97;1.65;;;23.10;52.70;;;;;;4852106;29;20042;-77
2023/10/13 20:35:48;;;;;;;5.50;1.90;;;23.00;52.60;;;;;;4850641;29;20040;-74